Ana Sayfa
METAR-TAF:

METAR-TAF

Havaalanları :

Diyarbakır Havalimanı

Diyarbakır, Türkiye

Enlem: 37-53N, Boylam: 040-11E, yükseklik: 686 m

Güncel hava durumu gözlemi

Rapor saat 16:20 UTC de 24 dakika önce yapıldı.
Rüzgar batı/güneybatıdan 4 kt
Sıcaklık 11°C
Nem 24%
Basınç 1022 hPa
Görüş mesafesi 10 km veya daha fazla
1500 m altında bulut yok ve kümülonimbus yok

METAR: LTCC 181620Z 25004KT CAVOK 11/M09 Q1022 NOSIG RMK RWY16 22004KT 090V260

Saat: 19:44 (16:44 UTC)

Tahmin

Rapor saat 10:40 UTC de 6 saat ve 4 dakika önce yapıldı.
Ayın 18'si saat 12 UTC'den ayın 19'si saat 12 UTC'ye kadar geçerli Tahmin
Rüzgar değişken yönden 2 kt
Görüş mesafesi 10 km veya daha fazla
1500 m altında bulut yok ve kümülonimbus yok

TAF: LTCC 181040Z 1812/1912 VRB02KT CAVOK

4.000'den fazla havaalanı için hava durumu gözlemleri ve tahminleri (METAR ve TAF raporları).

Kullanılabilir istasyonlar harita üzerinde sarı ve kırmızı noktalarla gösterilir.

İstasyonun adını görmek için fareyi noktanın üzerinde gezdirin.

Sonrasında hava gözlem ve tahminlerini görmek için tıklayın.

Haritayı değiştirmek için: yaklaştırmak için siyah artı işaretli yeşil düğmeye ve uzaklaştırmak için de eksi işaretli düğmeye hızla tıklayın; bitişik haritalar için yeşil okları kullanın.


METAR-TAF: